Lavista, Nebraska
Current Conditions -  °F | °C
As of 12:55 AM on Monday 24 Nov 2014 (Local Time) from KMLE Reporting Station
Scattered Clouds Scattered Clouds  
Wind Chill: 21°   Ceiling: Unl
Heat Index: 32°   Visibility: 10mi
Dew Point: 22°   Wind: 16mph
Humidity: 65%   Direction: 310°NW
Pressure: 29.54"   Gusts: 22mph
Location:  41.166°N, 96.0444°W
Report Text: KMLE 240655Z AUTO 31014G19KT 10SM SCT032 00/M06 A2954 RMK AO2 T00001058
Loading
Personal Weather Stations






























Interactive Weather Map New forecast layout! Learn more

10-Day Weather Forecast

Advertisements
Track Severe Weather on mobile